Terminal Aerodrome Forecast
Issued by NWS

Home | Current Version | Previous Version | Text Only | Print | Product List | Glossary On
Versions: 1 2 3 4 5 6 7 8 9 10 11 12 13 14
019
FTUS46 KSEW 250520
TAFHQM
TAF
KHQM 250520Z 2506/2606 25004KT P6SM SCT020 BKN035
     FM250900 25006KT P6SM OVC015
     FM251800 24012KT P6SM BKN020 BKN040
     FM252000 24012KT P6SM BKN030 BKN040=

USA.gov is the U.S. government's official web portal to all federal, state and local government web resources and services.